sensor_id;sensor_type;location;lat;lon;timestamp;temperature;humidity
16929;DHT22;8581;47.334;11.190;2024-01-06T00:00:03;1.90;99.90
16929;DHT22;8581;47.334;11.190;2024-01-06T00:02:35;1.90;99.90
16929;DHT22;8581;47.334;11.190;2024-01-06T00:05:07;2.30;99.90
16929;DHT22;8581;47.334;11.190;2024-01-06T00:07:39;2.10;99.90
16929;DHT22;8581;47.334;11.190;2024-01-06T00:10:10;2.00;99.90
16929;DHT22;8581;47.334;11.190;2024-01-06T00:12:42;1.90;99.90
16929;DHT22;8581;47.334;11.190;2024-01-06T00:15:14;1.80;99.90
16929;DHT22;8581;47.334;11.190;2024-01-06T00:17:45;1.80;99.90
16929;DHT22;8581;47.334;11.190;2024-01-06T00:20:17;1.90;99.90
16929;DHT22;8581;47.334;11.190;2024-01-06T00:22:48;1.80;99.90
16929;DHT22;8581;47.334;11.190;2024-01-06T00:25:20;1.70;99.90
16929;DHT22;8581;47.334;11.190;2024-01-06T00:27:52;1.80;99.90
16929;DHT22;8581;47.334;11.190;2024-01-06T00:30:23;1.80;99.90
16929;DHT22;8581;47.334;11.190;2024-01-06T00:32:55;1.70;99.90
16929;DHT22;8581;47.334;11.190;2024-01-06T00:35:26;1.70;99.90
16929;DHT22;8581;47.334;11.190;2024-01-06T00:37:58;1.70;99.90
16929;DHT22;8581;47.334;11.190;2024-01-06T00:40:30;1.70;99.90
16929;DHT22;8581;47.334;11.190;2024-01-06T00:43:01;1.70;99.90
16929;DHT22;8581;47.334;11.190;2024-01-06T00:45:33;1.70;99.90
16929;DHT22;8581;47.334;11.190;2024-01-06T00:48:05;1.70;99.90
16929;DHT22;8581;47.334;11.190;2024-01-06T00:50:37;1.70;99.90
16929;DHT22;8581;47.334;11.190;2024-01-06T00:53:09;2.00;99.90
16929;DHT22;8581;47.334;11.190;2024-01-06T00:55:41;1.80;99.90
16929;DHT22;8581;47.334;11.190;2024-01-06T00:58:12;1.80;99.90
16929;DHT22;8581;47.334;11.190;2024-01-06T01:00:44;1.80;99.90
16929;DHT22;8581;47.334;11.190;2024-01-06T01:03:15;1.80;99.90
16929;DHT22;8581;47.334;11.190;2024-01-06T01:05:47;1.80;99.90
16929;DHT22;8581;47.334;11.190;2024-01-06T01:08:19;1.70;99.90
16929;DHT22;8581;47.334;11.190;2024-01-06T01:10:50;1.70;99.90
16929;DHT22;8581;47.334;11.190;2024-01-06T01:13:22;1.70;99.90
16929;DHT22;8581;47.334;11.190;2024-01-06T01:15:54;2.30;99.90
16929;DHT22;8581;47.334;11.190;2024-01-06T01:18:25;1.70;99.90
16929;DHT22;8581;47.334;11.190;2024-01-06T01:20:57;1.70;99.90
16929;DHT22;8581;47.334;11.190;2024-01-06T01:23:28;1.70;99.90
16929;DHT22;8581;47.334;11.190;2024-01-06T01:26:00;1.80;99.90
16929;DHT22;8581;47.334;11.190;2024-01-06T01:28:31;1.70;99.90
16929;DHT22;8581;47.334;11.190;2024-01-06T01:31:03;1.70;99.90
16929;DHT22;8581;47.334;11.190;2024-01-06T01:33:35;1.70;99.90
16929;DHT22;8581;47.334;11.190;2024-01-06T01:36:06;1.70;99.90
16929;DHT22;8581;47.334;11.190;2024-01-06T01:38:38;1.80;99.90
16929;DHT22;8581;47.334;11.190;2024-01-06T01:41:09;1.90;99.90
16929;DHT22;8581;47.334;11.190;2024-01-06T01:43:41;1.90;99.90
16929;DHT22;8581;47.334;11.190;2024-01-06T01:46:13;1.80;99.90
16929;DHT22;8581;47.334;11.190;2024-01-06T01:48:44;1.80;99.90
16929;DHT22;8581;47.334;11.190;2024-01-06T01:51:16;1.80;99.90
16929;DHT22;8581;47.334;11.190;2024-01-06T01:53:48;1.90;99.90
16929;DHT22;8581;47.334;11.190;2024-01-06T01:56:19;1.80;99.90
16929;DHT22;8581;47.334;11.190;2024-01-06T01:58:51;1.70;99.90
16929;DHT22;8581;47.334;11.190;2024-01-06T02:01:23;1.70;99.90
16929;DHT22;8581;47.334;11.190;2024-01-06T02:03:54;1.70;99.90
16929;DHT22;8581;47.334;11.190;2024-01-06T02:06:26;1.80;99.90
16929;DHT22;8581;47.334;11.190;2024-01-06T02:08:58;1.80;99.90
16929;DHT22;8581;47.334;11.190;2024-01-06T02:11:29;1.80;99.90
16929;DHT22;8581;47.334;11.190;2024-01-06T02:14:01;1.90;99.90
16929;DHT22;8581;47.334;11.190;2024-01-06T02:16:32;1.90;99.90
16929;DHT22;8581;47.334;11.190;2024-01-06T02:19:04;1.80;99.90
16929;DHT22;8581;47.334;11.190;2024-01-06T02:21:36;1.80;99.90
16929;DHT22;8581;47.334;11.190;2024-01-06T02:24:07;1.80;99.90
16929;DHT22;8581;47.334;11.190;2024-01-06T02:26:39;1.80;99.90
16929;DHT22;8581;47.334;11.190;2024-01-06T02:29:11;1.80;99.90
16929;DHT22;8581;47.334;11.190;2024-01-06T02:31:42;2.00;99.90
16929;DHT22;8581;47.334;11.190;2024-01-06T02:34:14;2.00;99.90
16929;DHT22;8581;47.334;11.190;2024-01-06T02:36:45;1.90;99.90
16929;DHT22;8581;47.334;11.190;2024-01-06T02:39:17;1.90;99.90
16929;DHT22;8581;47.334;11.190;2024-01-06T02:41:49;1.90;99.90
16929;DHT22;8581;47.334;11.190;2024-01-06T02:44:20;2.00;99.90
16929;DHT22;8581;47.334;11.190;2024-01-06T02:46:52;1.90;99.90
16929;DHT22;8581;47.334;11.190;2024-01-06T02:49:24;1.90;99.90
16929;DHT22;8581;47.334;11.190;2024-01-06T02:51:55;1.90;99.90
16929;DHT22;8581;47.334;11.190;2024-01-06T02:54:27;1.90;99.90
16929;DHT22;8581;47.334;11.190;2024-01-06T02:56:58;2.00;99.90
16929;DHT22;8581;47.334;11.190;2024-01-06T02:59:30;1.80;99.90
16929;DHT22;8581;47.334;11.190;2024-01-06T03:02:02;1.90;99.90
16929;DHT22;8581;47.334;11.190;2024-01-06T03:04:33;1.90;99.90
16929;DHT22;8581;47.334;11.190;2024-01-06T03:07:05;1.70;99.90
16929;DHT22;8581;47.334;11.190;2024-01-06T03:09:37;1.60;99.90
16929;DHT22;8581;47.334;11.190;2024-01-06T03:12:08;1.40;99.90
16929;DHT22;8581;47.334;11.190;2024-01-06T03:14:40;1.70;99.90
16929;DHT22;8581;47.334;11.190;2024-01-06T03:17:12;1.50;99.90
16929;DHT22;8581;47.334;11.190;2024-01-06T03:19:43;1.40;99.90
16929;DHT22;8581;47.334;11.190;2024-01-06T03:22:15;1.20;99.90
16929;DHT22;8581;47.334;11.190;2024-01-06T03:24:47;1.10;99.90
16929;DHT22;8581;47.334;11.190;2024-01-06T03:27:18;1.20;99.90
16929;DHT22;8581;47.334;11.190;2024-01-06T03:29:50;1.10;99.90
16929;DHT22;8581;47.334;11.190;2024-01-06T03:32:22;1.10;99.90
16929;DHT22;8581;47.334;11.190;2024-01-06T03:34:53;1.30;99.90
16929;DHT22;8581;47.334;11.190;2024-01-06T03:37:25;1.50;99.90
16929;DHT22;8581;47.334;11.190;2024-01-06T03:39:56;1.20;99.90
16929;DHT22;8581;47.334;11.190;2024-01-06T03:42:28;1.00;99.90
16929;DHT22;8581;47.334;11.190;2024-01-06T03:45:00;1.10;99.90
16929;DHT22;8581;47.334;11.190;2024-01-06T03:47:31;1.00;99.90
16929;DHT22;8581;47.334;11.190;2024-01-06T03:50:04;1.10;99.90
16929;DHT22;8581;47.334;11.190;2024-01-06T03:52:35;1.20;99.90
16929;DHT22;8581;47.334;11.190;2024-01-06T03:55:07;1.20;99.90
16929;DHT22;8581;47.334;11.190;2024-01-06T03:57:39;1.00;99.90
16929;DHT22;8581;47.334;11.190;2024-01-06T04:00:12;1.00;99.90
16929;DHT22;8581;47.334;11.190;2024-01-06T04:02:43;1.00;99.90
16929;DHT22;8581;47.334;11.190;2024-01-06T04:05:15;0.90;99.90
16929;DHT22;8581;47.334;11.190;2024-01-06T04:07:47;1.00;99.90
16929;DHT22;8581;47.334;11.190;2024-01-06T04:10:18;1.00;99.90
16929;DHT22;8581;47.334;11.190;2024-01-06T04:12:50;0.90;99.90
16929;DHT22;8581;47.334;11.190;2024-01-06T04:15:21;1.10;99.90
16929;DHT22;8581;47.334;11.190;2024-01-06T04:17:54;1.20;99.90
16929;DHT22;8581;47.334;11.190;2024-01-06T04:20:25;1.30;99.90
16929;DHT22;8581;47.334;11.190;2024-01-06T04:22:56;1.30;99.90
16929;DHT22;8581;47.334;11.190;2024-01-06T04:25:28;1.30;99.90
16929;DHT22;8581;47.334;11.190;2024-01-06T04:28:00;1.20;99.90
16929;DHT22;8581;47.334;11.190;2024-01-06T04:30:31;1.20;99.90
16929;DHT22;8581;47.334;11.190;2024-01-06T04:33:03;1.20;99.90
16929;DHT22;8581;47.334;11.190;2024-01-06T04:35:35;1.20;99.90
16929;DHT22;8581;47.334;11.190;2024-01-06T04:38:07;1.30;99.90
16929;DHT22;8581;47.334;11.190;2024-01-06T04:40:38;1.30;99.90
16929;DHT22;8581;47.334;11.190;2024-01-06T04:43:10;1.20;99.90
16929;DHT22;8581;47.334;11.190;2024-01-06T04:45:41;1.20;99.90
16929;DHT22;8581;47.334;11.190;2024-01-06T04:48:13;1.20;99.90
16929;DHT22;8581;47.334;11.190;2024-01-06T04:50:45;1.10;99.90
16929;DHT22;8581;47.334;11.190;2024-01-06T04:53:22;1.00;99.90
16929;DHT22;8581;47.334;11.190;2024-01-06T04:55:54;1.10;99.90
16929;DHT22;8581;47.334;11.190;2024-01-06T04:58:26;1.10;99.90
16929;DHT22;8581;47.334;11.190;2024-01-06T05:00:57;1.00;99.90
16929;DHT22;8581;47.334;11.190;2024-01-06T05:03:29;1.10;99.90
16929;DHT22;8581;47.334;11.190;2024-01-06T05:06:00;1.20;99.90
16929;DHT22;8581;47.334;11.190;2024-01-06T05:08:32;1.10;99.90
16929;DHT22;8581;47.334;11.190;2024-01-06T05:11:04;1.10;99.90
16929;DHT22;8581;47.334;11.190;2024-01-06T05:13:36;1.00;99.90
16929;DHT22;8581;47.334;11.190;2024-01-06T05:16:10;0.90;99.90
16929;DHT22;8581;47.334;11.190;2024-01-06T05:18:42;1.00;99.90
16929;DHT22;8581;47.334;11.190;2024-01-06T05:21:13;1.00;99.90
16929;DHT22;8581;47.334;11.190;2024-01-06T05:23:45;1.10;99.90
16929;DHT22;8581;47.334;11.190;2024-01-06T05:26:16;1.20;99.90
16929;DHT22;8581;47.334;11.190;2024-01-06T05:28:48;1.20;99.90
16929;DHT22;8581;47.334;11.190;2024-01-06T05:31:20;1.40;99.90
16929;DHT22;8581;47.334;11.190;2024-01-06T05:33:51;1.30;99.90
16929;DHT22;8581;47.334;11.190;2024-01-06T05:36:23;1.30;99.90
16929;DHT22;8581;47.334;11.190;2024-01-06T05:38:55;1.20;99.90
16929;DHT22;8581;47.334;11.190;2024-01-06T05:41:26;1.20;99.90
16929;DHT22;8581;47.334;11.190;2024-01-06T05:43:58;1.40;99.90
16929;DHT22;8581;47.334;11.190;2024-01-06T05:46:29;1.30;99.90
16929;DHT22;8581;47.334;11.190;2024-01-06T05:49:01;1.30;99.90
16929;DHT22;8581;47.334;11.190;2024-01-06T05:51:33;1.20;99.90
16929;DHT22;8581;47.334;11.190;2024-01-06T05:54:04;1.20;99.90
16929;DHT22;8581;47.334;11.190;2024-01-06T05:56:36;1.30;99.90
16929;DHT22;8581;47.334;11.190;2024-01-06T05:59:07;1.20;99.90
16929;DHT22;8581;47.334;11.190;2024-01-06T06:01:39;1.10;99.90
16929;DHT22;8581;47.334;11.190;2024-01-06T06:04:12;1.10;99.90
16929;DHT22;8581;47.334;11.190;2024-01-06T06:06:43;1.00;99.90
16929;DHT22;8581;47.334;11.190;2024-01-06T06:09:15;0.90;99.90
16929;DHT22;8581;47.334;11.190;2024-01-06T06:11:46;0.90;99.90
16929;DHT22;8581;47.334;11.190;2024-01-06T06:14:18;1.00;99.90
16929;DHT22;8581;47.334;11.190;2024-01-06T06:16:50;0.90;99.90
16929;DHT22;8581;47.334;11.190;2024-01-06T06:19:21;1.00;99.90
16929;DHT22;8581;47.334;11.190;2024-01-06T06:21:53;1.00;99.90
16929;DHT22;8581;47.334;11.190;2024-01-06T06:24:24;1.10;99.90
16929;DHT22;8581;47.334;11.190;2024-01-06T06:26:56;1.10;99.90
16929;DHT22;8581;47.334;11.190;2024-01-06T06:29:28;1.20;99.90
16929;DHT22;8581;47.334;11.190;2024-01-06T06:31:59;1.30;99.90
16929;DHT22;8581;47.334;11.190;2024-01-06T06:34:31;1.20;99.90
16929;DHT22;8581;47.334;11.190;2024-01-06T06:37:03;1.20;99.90
16929;DHT22;8581;47.334;11.190;2024-01-06T06:39:35;1.20;99.90
16929;DHT22;8581;47.334;11.190;2024-01-06T06:42:06;1.10;99.90
16929;DHT22;8581;47.334;11.190;2024-01-06T06:44:38;1.00;99.90
16929;DHT22;8581;47.334;11.190;2024-01-06T06:47:09;1.00;99.90
16929;DHT22;8581;47.334;11.190;2024-01-06T06:49:41;1.00;99.90
16929;DHT22;8581;47.334;11.190;2024-01-06T06:52:13;1.10;99.90
16929;DHT22;8581;47.334;11.190;2024-01-06T06:54:44;1.20;99.90
16929;DHT22;8581;47.334;11.190;2024-01-06T06:57:16;1.20;99.90
16929;DHT22;8581;47.334;11.190;2024-01-06T06:59:47;1.00;99.90
16929;DHT22;8581;47.334;11.190;2024-01-06T07:02:19;1.10;99.90
16929;DHT22;8581;47.334;11.190;2024-01-06T07:04:51;1.20;99.90
16929;DHT22;8581;47.334;11.190;2024-01-06T07:07:22;1.30;99.90
16929;DHT22;8581;47.334;11.190;2024-01-06T07:09:54;1.20;99.90
16929;DHT22;8581;47.334;11.190;2024-01-06T07:12:25;1.10;99.90
16929;DHT22;8581;47.334;11.190;2024-01-06T07:14:57;1.20;99.90
16929;DHT22;8581;47.334;11.190;2024-01-06T07:17:30;1.20;99.90
16929;DHT22;8581;47.334;11.190;2024-01-06T07:20:02;1.30;99.90
16929;DHT22;8581;47.334;11.190;2024-01-06T07:22:35;1.30;99.90
16929;DHT22;8581;47.334;11.190;2024-01-06T07:25:06;1.30;99.90
16929;DHT22;8581;47.334;11.190;2024-01-06T07:27:38;1.30;99.90
16929;DHT22;8581;47.334;11.190;2024-01-06T07:30:10;1.40;99.90
16929;DHT22;8581;47.334;11.190;2024-01-06T07:32:42;1.40;99.90
16929;DHT22;8581;47.334;11.190;2024-01-06T07:35:14;1.40;99.90
16929;DHT22;8581;47.334;11.190;2024-01-06T07:37:45;1.40;99.90
16929;DHT22;8581;47.334;11.190;2024-01-06T07:40:17;1.30;99.90
16929;DHT22;8581;47.334;11.190;2024-01-06T07:42:49;1.20;99.90
16929;DHT22;8581;47.334;11.190;2024-01-06T07:45:20;1.10;99.90
16929;DHT22;8581;47.334;11.190;2024-01-06T07:47:52;1.20;99.90
16929;DHT22;8581;47.334;11.190;2024-01-06T07:50:24;1.30;99.90
16929;DHT22;8581;47.334;11.190;2024-01-06T07:52:55;1.40;99.90
16929;DHT22;8581;47.334;11.190;2024-01-06T07:55:27;1.40;99.90
16929;DHT22;8581;47.334;11.190;2024-01-06T07:57:59;1.30;99.90
16929;DHT22;8581;47.334;11.190;2024-01-06T08:00:30;1.40;99.90
16929;DHT22;8581;47.334;11.190;2024-01-06T08:03:02;1.70;99.90
16929;DHT22;8581;47.334;11.190;2024-01-06T08:05:34;1.60;99.90
16929;DHT22;8581;47.334;11.190;2024-01-06T08:08:06;1.60;99.90
16929;DHT22;8581;47.334;11.190;2024-01-06T08:10:37;1.80;99.90
16929;DHT22;8581;47.334;11.190;2024-01-06T08:13:09;1.90;99.90
16929;DHT22;8581;47.334;11.190;2024-01-06T08:15:41;2.00;99.90
16929;DHT22;8581;47.334;11.190;2024-01-06T08:18:12;2.00;99.90
16929;DHT22;8581;47.334;11.190;2024-01-06T08:20:44;2.00;99.90
16929;DHT22;8581;47.334;11.190;2024-01-06T08:23:16;1.80;99.90
16929;DHT22;8581;47.334;11.190;2024-01-06T08:25:48;1.90;99.90
16929;DHT22;8581;47.334;11.190;2024-01-06T08:28:19;1.90;99.90
16929;DHT22;8581;47.334;11.190;2024-01-06T08:30:51;2.00;99.90
16929;DHT22;8581;47.334;11.190;2024-01-06T08:33:22;2.10;99.90
16929;DHT22;8581;47.334;11.190;2024-01-06T08:35:54;2.10;99.90
16929;DHT22;8581;47.334;11.190;2024-01-06T08:38:25;2.00;99.90
16929;DHT22;8581;47.334;11.190;2024-01-06T08:40:57;2.00;99.90
16929;DHT22;8581;47.334;11.190;2024-01-06T08:43:29;1.90;99.90
16929;DHT22;8581;47.334;11.190;2024-01-06T08:46:00;1.90;99.90
16929;DHT22;8581;47.334;11.190;2024-01-06T08:48:32;1.80;99.90
16929;DHT22;8581;47.334;11.190;2024-01-06T08:51:04;1.90;99.90
16929;DHT22;8581;47.334;11.190;2024-01-06T08:53:35;2.00;99.90
16929;DHT22;8581;47.334;11.190;2024-01-06T08:56:08;2.00;99.90
16929;DHT22;8581;47.334;11.190;2024-01-06T08:58:39;1.90;99.90
16929;DHT22;8581;47.334;11.190;2024-01-06T09:01:11;2.00;99.90
16929;DHT22;8581;47.334;11.190;2024-01-06T09:03:42;2.10;99.90
16929;DHT22;8581;47.334;11.190;2024-01-06T09:06:14;1.90;99.90
16929;DHT22;8581;47.334;11.190;2024-01-06T09:08:45;1.60;99.90
16929;DHT22;8581;47.334;11.190;2024-01-06T09:11:17;1.50;99.90
16929;DHT22;8581;47.334;11.190;2024-01-06T09:13:49;1.40;99.90
16929;DHT22;8581;47.334;11.190;2024-01-06T09:16:20;1.30;99.90
16929;DHT22;8581;47.334;11.190;2024-01-06T09:18:52;1.20;99.90
16929;DHT22;8581;47.334;11.190;2024-01-06T09:21:23;1.10;99.90
16929;DHT22;8581;47.334;11.190;2024-01-06T09:23:55;1.20;99.90
16929;DHT22;8581;47.334;11.190;2024-01-06T09:26:27;1.10;99.90
16929;DHT22;8581;47.334;11.190;2024-01-06T09:28:58;1.00;99.90
16929;DHT22;8581;47.334;11.190;2024-01-06T09:31:30;1.10;99.90
16929;DHT22;8581;47.334;11.190;2024-01-06T09:34:02;1.10;99.90
16929;DHT22;8581;47.334;11.190;2024-01-06T09:36:34;1.20;99.90
16929;DHT22;8581;47.334;11.190;2024-01-06T09:39:06;1.40;99.90
16929;DHT22;8581;47.334;11.190;2024-01-06T09:41:37;1.60;99.90
16929;DHT22;8581;47.334;11.190;2024-01-06T09:44:09;1.40;99.90
16929;DHT22;8581;47.334;11.190;2024-01-06T09:46:40;1.40;99.90
16929;DHT22;8581;47.334;11.190;2024-01-06T09:49:12;1.50;99.90
16929;DHT22;8581;47.334;11.190;2024-01-06T09:51:44;1.50;99.90
16929;DHT22;8581;47.334;11.190;2024-01-06T09:54:16;1.60;99.90
16929;DHT22;8581;47.334;11.190;2024-01-06T09:56:47;1.70;99.90
16929;DHT22;8581;47.334;11.190;2024-01-06T09:59:19;1.70;99.90
16929;DHT22;8581;47.334;11.190;2024-01-06T10:01:51;1.70;99.90
16929;DHT22;8581;47.334;11.190;2024-01-06T10:04:22;1.60;99.90
16929;DHT22;8581;47.334;11.190;2024-01-06T10:06:54;1.70;99.90
16929;DHT22;8581;47.334;11.190;2024-01-06T10:09:27;1.70;99.90
16929;DHT22;8581;47.334;11.190;2024-01-06T10:11:58;1.90;99.90
16929;DHT22;8581;47.334;11.190;2024-01-06T10:14:30;1.80;99.90
16929;DHT22;8581;47.334;11.190;2024-01-06T10:17:02;1.90;99.90
16929;DHT22;8581;47.334;11.190;2024-01-06T10:19:34;1.80;99.90
16929;DHT22;8581;47.334;11.190;2024-01-06T10:22:05;1.90;99.90
16929;DHT22;8581;47.334;11.190;2024-01-06T10:24:37;1.80;99.90
16929;DHT22;8581;47.334;11.190;2024-01-06T10:27:09;2.10;99.90
16929;DHT22;8581;47.334;11.190;2024-01-06T10:29:41;2.10;99.90
16929;DHT22;8581;47.334;11.190;2024-01-06T10:32:12;1.90;99.90
16929;DHT22;8581;47.334;11.190;2024-01-06T10:34:44;1.90;99.90
16929;DHT22;8581;47.334;11.190;2024-01-06T10:37:16;2.00;99.90
16929;DHT22;8581;47.334;11.190;2024-01-06T10:39:47;2.10;99.90
16929;DHT22;8581;47.334;11.190;2024-01-06T10:42:19;1.90;99.90
16929;DHT22;8581;47.334;11.190;2024-01-06T10:44:50;2.00;99.90
16929;DHT22;8581;47.334;11.190;2024-01-06T10:47:22;2.00;99.90
16929;DHT22;8581;47.334;11.190;2024-01-06T10:49:54;2.10;99.90
16929;DHT22;8581;47.334;11.190;2024-01-06T10:52:26;2.00;99.90
16929;DHT22;8581;47.334;11.190;2024-01-06T10:54:57;2.00;99.90
16929;DHT22;8581;47.334;11.190;2024-01-06T10:57:29;1.90;99.90
16929;DHT22;8581;47.334;11.190;2024-01-06T11:00:00;1.90;99.90
16929;DHT22;8581;47.334;11.190;2024-01-06T11:02:32;1.90;99.90
16929;DHT22;8581;47.334;11.190;2024-01-06T11:05:04;2.00;99.90
16929;DHT22;8581;47.334;11.190;2024-01-06T11:07:36;1.60;99.90
16929;DHT22;8581;47.334;11.190;2024-01-06T11:10:11;1.80;99.90
16929;DHT22;8581;47.334;11.190;2024-01-06T11:12:41;1.70;99.90
16929;DHT22;8581;47.334;11.190;2024-01-06T11:18:00;1.60;99.90
16929;DHT22;8581;47.334;11.190;2024-01-06T11:20:31;1.60;99.90
16929;DHT22;8581;47.334;11.190;2024-01-06T11:25:43;1.70;99.90
16929;DHT22;8581;47.334;11.190;2024-01-06T11:28:16;1.70;99.90
16929;DHT22;8581;47.334;11.190;2024-01-06T11:30:47;1.80;99.90
16929;DHT22;8581;47.334;11.190;2024-01-06T11:33:18;1.70;99.90
16929;DHT22;8581;47.334;11.190;2024-01-06T11:35:50;1.60;99.90
16929;DHT22;8581;47.334;11.190;2024-01-06T11:38:22;1.80;99.90
16929;DHT22;8581;47.334;11.190;2024-01-06T11:40:53;1.80;99.90
16929;DHT22;8581;47.334;11.190;2024-01-06T11:43:25;2.00;99.90
16929;DHT22;8581;47.334;11.190;2024-01-06T11:45:57;1.80;99.90
16929;DHT22;8581;47.334;11.190;2024-01-06T11:48:29;1.90;99.90
16929;DHT22;8581;47.334;11.190;2024-01-06T11:51:01;1.80;99.90
16929;DHT22;8581;47.334;11.190;2024-01-06T11:53:32;1.50;99.90
16929;DHT22;8581;47.334;11.190;2024-01-06T11:56:05;1.50;99.90
16929;DHT22;8581;47.334;11.190;2024-01-06T11:58:39;1.90;99.90
16929;DHT22;8581;47.334;11.190;2024-01-06T12:01:08;1.70;99.90
16929;DHT22;8581;47.334;11.190;2024-01-06T12:03:40;1.60;99.90
16929;DHT22;8581;47.334;11.190;2024-01-06T12:06:11;1.70;99.90
16929;DHT22;8581;47.334;11.190;2024-01-06T12:08:43;1.60;99.90
16929;DHT22;8581;47.334;11.190;2024-01-06T12:11:17;1.50;99.90
16929;DHT22;8581;47.334;11.190;2024-01-06T12:13:46;1.40;99.90
16929;DHT22;8581;47.334;11.190;2024-01-06T12:16:18;1.50;99.90
16929;DHT22;8581;47.334;11.190;2024-01-06T12:18:49;1.50;99.90
16929;DHT22;8581;47.334;11.190;2024-01-06T12:21:22;1.60;99.90
16929;DHT22;8581;47.334;11.190;2024-01-06T12:23:53;1.80;99.90
16929;DHT22;8581;47.334;11.190;2024-01-06T12:26:25;1.50;99.90
16929;DHT22;8581;47.334;11.190;2024-01-06T12:28:57;1.30;99.90
16929;DHT22;8581;47.334;11.190;2024-01-06T12:31:29;1.50;99.90
16929;DHT22;8581;47.334;11.190;2024-01-06T12:34:00;1.40;99.90
16929;DHT22;8581;47.334;11.190;2024-01-06T12:36:32;1.40;99.90
16929;DHT22;8581;47.334;11.190;2024-01-06T12:39:03;1.50;99.90
16929;DHT22;8581;47.334;11.190;2024-01-06T12:41:36;1.40;99.90
16929;DHT22;8581;47.334;11.190;2024-01-06T12:44:08;1.40;99.90
16929;DHT22;8581;47.334;11.190;2024-01-06T12:46:38;1.50;99.90
16929;DHT22;8581;47.334;11.190;2024-01-06T12:49:10;1.60;99.90
16929;DHT22;8581;47.334;11.190;2024-01-06T12:51:42;1.60;99.90
16929;DHT22;8581;47.334;11.190;2024-01-06T12:54:13;1.60;99.90
16929;DHT22;8581;47.334;11.190;2024-01-06T12:56:45;1.60;99.90
16929;DHT22;8581;47.334;11.190;2024-01-06T12:59:17;1.70;99.90
16929;DHT22;8581;47.334;11.190;2024-01-06T13:01:48;1.60;99.90
16929;DHT22;8581;47.334;11.190;2024-01-06T13:04:20;1.60;99.90
16929;DHT22;8581;47.334;11.190;2024-01-06T13:06:51;1.50;99.90
16929;DHT22;8581;47.334;11.190;2024-01-06T13:09:23;1.20;99.90
16929;DHT22;8581;47.334;11.190;2024-01-06T13:11:55;1.40;99.90
16929;DHT22;8581;47.334;11.190;2024-01-06T13:14:27;1.50;99.90
16929;DHT22;8581;47.334;11.190;2024-01-06T13:16:58;1.40;99.90
16929;DHT22;8581;47.334;11.190;2024-01-06T13:19:30;1.30;99.90
16929;DHT22;8581;47.334;11.190;2024-01-06T13:22:01;1.20;99.90
16929;DHT22;8581;47.334;11.190;2024-01-06T13:24:33;1.20;99.90
16929;DHT22;8581;47.334;11.190;2024-01-06T13:27:05;1.30;99.90
16929;DHT22;8581;47.334;11.190;2024-01-06T13:29:36;1.20;99.90
16929;DHT22;8581;47.334;11.190;2024-01-06T13:32:08;0.90;99.90
16929;DHT22;8581;47.334;11.190;2024-01-06T13:34:40;1.00;99.90
16929;DHT22;8581;47.334;11.190;2024-01-06T13:37:11;0.90;99.90
16929;DHT22;8581;47.334;11.190;2024-01-06T13:39:43;0.90;99.90
16929;DHT22;8581;47.334;11.190;2024-01-06T13:42:14;0.90;99.90
16929;DHT22;8581;47.334;11.190;2024-01-06T13:44:46;1.10;99.90
16929;DHT22;8581;47.334;11.190;2024-01-06T13:47:18;1.10;99.90
16929;DHT22;8581;47.334;11.190;2024-01-06T13:49:52;1.10;99.90
16929;DHT22;8581;47.334;11.190;2024-01-06T13:52:24;1.00;99.90
16929;DHT22;8581;47.334;11.190;2024-01-06T13:54:55;0.90;99.90
16929;DHT22;8581;47.334;11.190;2024-01-06T13:57:27;0.70;99.90
16929;DHT22;8581;47.334;11.190;2024-01-06T13:59:59;0.80;99.90
16929;DHT22;8581;47.334;11.190;2024-01-06T14:02:30;0.80;99.90
16929;DHT22;8581;47.334;11.190;2024-01-06T14:05:02;0.90;99.90
16929;DHT22;8581;47.334;11.190;2024-01-06T14:07:34;0.90;99.90
16929;DHT22;8581;47.334;11.190;2024-01-06T14:10:06;1.00;99.90
16929;DHT22;8581;47.334;11.190;2024-01-06T14:12:37;1.00;99.90
16929;DHT22;8581;47.334;11.190;2024-01-06T14:15:09;0.90;99.90
16929;DHT22;8581;47.334;11.190;2024-01-06T14:17:41;0.80;99.90
16929;DHT22;8581;47.334;11.190;2024-01-06T14:20:12;0.90;99.90
16929;DHT22;8581;47.334;11.190;2024-01-06T14:22:45;0.90;99.90
16929;DHT22;8581;47.334;11.190;2024-01-06T14:25:17;1.00;99.90
16929;DHT22;8581;47.334;11.190;2024-01-06T14:27:49;0.70;99.90
16929;DHT22;8581;47.334;11.190;2024-01-06T14:30:21;0.70;99.90
16929;DHT22;8581;47.334;11.190;2024-01-06T14:32:52;0.60;99.90
16929;DHT22;8581;47.334;11.190;2024-01-06T14:35:24;0.40;99.90
16929;DHT22;8581;47.334;11.190;2024-01-06T14:37:55;0.40;99.90
16929;DHT22;8581;47.334;11.190;2024-01-06T14:40:27;0.40;99.90
16929;DHT22;8581;47.334;11.190;2024-01-06T14:42:59;0.30;99.90
16929;DHT22;8581;47.334;11.190;2024-01-06T14:45:31;0.30;99.90
16929;DHT22;8581;47.334;11.190;2024-01-06T14:48:02;0.30;99.90
16929;DHT22;8581;47.334;11.190;2024-01-06T14:50:34;0.40;99.90
16929;DHT22;8581;47.334;11.190;2024-01-06T14:53:06;0.40;99.90
16929;DHT22;8581;47.334;11.190;2024-01-06T14:55:37;0.50;99.90
16929;DHT22;8581;47.334;11.190;2024-01-06T14:58:09;0.40;99.90
16929;DHT22;8581;47.334;11.190;2024-01-06T15:00:41;0.30;99.90
16929;DHT22;8581;47.334;11.190;2024-01-06T15:03:12;0.20;99.90
16929;DHT22;8581;47.334;11.190;2024-01-06T15:05:44;0.20;99.90
16929;DHT22;8581;47.334;11.190;2024-01-06T15:08:15;0.30;99.90
16929;DHT22;8581;47.334;11.190;2024-01-06T15:10:47;0.10;99.90
16929;DHT22;8581;47.334;11.190;2024-01-06T15:13:19;0.10;99.90
16929;DHT22;8581;47.334;11.190;2024-01-06T15:15:50;0.10;99.90
16929;DHT22;8581;47.334;11.190;2024-01-06T15:18:22;0.00;99.90
16929;DHT22;8581;47.334;11.190;2024-01-06T15:20:54;0.10;99.90
16929;DHT22;8581;47.334;11.190;2024-01-06T15:23:25;0.10;99.90
16929;DHT22;8581;47.334;11.190;2024-01-06T15:25:57;0.00;99.90
16929;DHT22;8581;47.334;11.190;2024-01-06T15:28:28;0.10;99.90
16929;DHT22;8581;47.334;11.190;2024-01-06T15:31:00;0.00;99.90
16929;DHT22;8581;47.334;11.190;2024-01-06T15:33:32;0.00;99.90
16929;DHT22;8581;47.334;11.190;2024-01-06T15:36:04;-0.10;99.90
16929;DHT22;8581;47.334;11.190;2024-01-06T15:38:36;0.00;99.90
16929;DHT22;8581;47.334;11.190;2024-01-06T15:41:07;0.00;99.90
16929;DHT22;8581;47.334;11.190;2024-01-06T15:43:39;-0.10;99.90
16929;DHT22;8581;47.334;11.190;2024-01-06T15:46:11;-0.10;99.90
16929;DHT22;8581;47.334;11.190;2024-01-06T15:48:43;-0.10;99.90
16929;DHT22;8581;47.334;11.190;2024-01-06T15:51:14;-0.20;99.90
16929;DHT22;8581;47.334;11.190;2024-01-06T15:53:46;-0.10;99.90
16929;DHT22;8581;47.334;11.190;2024-01-06T15:56:18;-0.10;99.90
16929;DHT22;8581;47.334;11.190;2024-01-06T15:58:49;-0.10;99.90
16929;DHT22;8581;47.334;11.190;2024-01-06T16:01:21;-0.10;99.90
16929;DHT22;8581;47.334;11.190;2024-01-06T16:03:53;0.00;99.90
16929;DHT22;8581;47.334;11.190;2024-01-06T16:06:24;0.00;99.90
16929;DHT22;8581;47.334;11.190;2024-01-06T16:08:56;0.10;99.90
16929;DHT22;8581;47.334;11.190;2024-01-06T16:11:28;0.10;99.90
16929;DHT22;8581;47.334;11.190;2024-01-06T16:13:59;0.10;99.90
16929;DHT22;8581;47.334;11.190;2024-01-06T16:16:31;0.00;99.90